Time;durP1;ratioP1;P1;durP2;ratioP2;P2;SDS_P1;SDS_P2;PMS_P1;PMS_P2;Temp;Humidity;BMP_temperature;BMP_pressure;BME280_temperature;BME280_humidity;BME280_pressure;Samples;Min_cycle;Max_cycle;Signal;HPM_P1;HPM_P2
2022/03/12 00:00:29;;;;;;;4.97;2.92;;;;;;;;;;1657509;29;21653;-60
2022/03/12 00:01:21;;;;;;;4.03;2.95;;;;;;;;;;1657599;29;21610;-60
2022/03/12 00:02:13;;;;;;;3.78;2.70;;;;;;;;;;1662916;29;21818;-60
2022/03/12 00:03:05;;;;;;;3.35;3.05;;;;;;;;;;1663816;29;21695;-59
2022/03/12 00:03:59;;;;;;;3.50;3.20;;;;;;;;;;1664443;29;22163;-60
2022/03/12 00:04:50;;;;;;;6.35;3.22;;;;;;;;;;1664308;29;22114;-60
2022/03/12 00:05:52;;;;;;;8.70;3.17;;;;;;;;;;1662816;29;21661;-60
2022/03/12 00:06:43;;;;;;;6.38;3.42;;;;;;;;;;1664409;29;22305;-60
2022/03/12 00:07:36;;;;;;;5.10;2.80;;;;;;;;;;1664336;29;21529;-60
2022/03/12 00:08:41;;;;;;;2.95;2.75;;;;;;;;;;1663641;29;22315;-60
2022/03/12 00:09:34;;;;;;;3.45;3.15;;;;;;;;;;1664200;29;21516;-60
2022/03/12 00:10:27;;;;;;;2.97;2.78;;;;;;;;;;1664270;29;21701;-60
2022/03/12 00:11:22;;;;;;;2.83;2.63;;;;;;;;;;1663754;29;21602;-60
2022/03/12 00:12:17;;;;;;;3.30;3.00;;;;;;;;;;1664014;29;21537;-60
2022/03/12 00:13:09;;;;;;;2.83;2.42;;;;;;;;;;1664329;29;21705;-60
2022/03/12 00:14:04;;;;;;;5.97;2.50;;;;;;;;;;1663789;29;21720;-60
2022/03/12 00:14:56;;;;;;;3.20;2.90;;;;;;;;;;1661524;29;21610;-60
2022/03/12 00:15:50;;;;;;;4.38;2.80;;;;;;;;;;1663590;29;21656;-60
2022/03/12 00:16:43;;;;;;;3.20;3.00;;;;;;;;;;1656570;29;21623;-60
2022/03/12 00:17:34;;;;;;;3.97;2.47;;;;;;;;;;1654753;29;21867;-60
2022/03/12 00:18:31;;;;;;;3.33;2.83;;;;;;;;;;1662178;29;21631;-60
2022/03/12 00:19:22;;;;;;;3.72;2.88;;;;;;;;;;1663738;29;21737;-60
2022/03/12 00:20:18;;;;;;;7.18;3.90;;;;;;;;;;1664107;29;21652;-60
2022/03/12 00:21:12;;;;;;;4.05;3.22;;;;;;;;;;1664382;29;21501;-59
2022/03/12 00:22:06;;;;;;;3.53;2.78;;;;;;;;;;1663088;29;21619;-60
2022/03/12 00:22:57;;;;;;;3.88;3.33;;;;;;;;;;1660883;29;21766;-59
2022/03/12 00:23:50;;;;;;;4.93;3.20;;;;;;;;;;1662365;29;22265;-60
2022/03/12 00:24:43;;;;;;;2.72;2.50;;;;;;;;;;1663462;29;21536;-60
2022/03/12 00:25:37;;;;;;;3.30;2.75;;;;;;;;;;1660880;29;21718;-60
2022/03/12 00:26:29;;;;;;;2.83;2.58;;;;;;;;;;1664347;29;21630;-59
2022/03/12 00:27:21;;;;;;;3.30;3.00;;;;;;;;;;1663960;29;22360;-60
2022/03/12 00:28:12;;;;;;;3.28;2.65;;;;;;;;;;1664399;29;22071;-59
2022/03/12 00:29:09;;;;;;;3.90;3.30;;;;;;;;;;1664380;29;21659;-61
2022/03/12 00:30:00;;;;;;;3.60;3.30;;;;;;;;;;1664311;29;21911;-60
2022/03/12 00:30:53;;;;;;;3.22;3.03;;;;;;;;;;1665359;29;21613;-60
2022/03/12 00:31:45;;;;;;;3.10;2.80;;;;;;;;;;1665398;29;21606;-60
2022/03/12 00:32:38;;;;;;;3.38;3.08;;;;;;;;;;1664894;29;21588;-60
2022/03/12 00:33:29;;;;;;;2.83;2.50;;;;;;;;;;1664584;29;22264;-60
2022/03/12 00:34:22;;;;;;;3.80;3.13;;;;;;;;;;1665409;29;21614;-60
2022/03/12 00:35:14;;;;;;;3.35;2.70;;;;;;;;;;1664846;29;21549;-60
2022/03/12 00:36:08;;;;;;;4.07;2.70;;;;;;;;;;1664774;29;22086;-60
2022/03/12 00:36:59;;;;;;;2.97;2.78;;;;;;;;;;1665526;29;21566;-60
2022/03/12 00:37:52;;;;;;;3.40;3.10;;;;;;;;;;1664851;29;21664;-60
2022/03/12 00:38:44;;;;;;;3.67;2.78;;;;;;;;;;1665154;29;21742;-60
2022/03/12 00:39:36;;;;;;;3.28;2.70;;;;;;;;;;1665660;29;22139;-59
2022/03/12 00:40:28;;;;;;;6.50;3.17;;;;;;;;;;1664560;29;21708;-60
2022/03/12 00:41:20;;;;;;;3.20;2.88;;;;;;;;;;1665092;29;21712;-59
2022/03/12 00:42:13;;;;;;;4.07;2.83;;;;;;;;;;1665356;29;22065;-60
2022/03/12 00:43:06;;;;;;;3.25;2.53;;;;;;;;;;1664856;29;21525;-60
2022/03/12 00:43:58;;;;;;;3.10;2.80;;;;;;;;;;1664897;29;21556;-60
2022/03/12 00:44:50;;;;;;;9.18;3.05;;;;;;;;;;1665363;29;21572;-60
2022/03/12 00:45:43;;;;;;;6.38;2.70;;;;;;;;;;1663999;29;21576;-60
2022/03/12 00:46:34;;;;;;;2.90;2.70;;;;;;;;;;1664823;29;21482;-59
2022/03/12 00:47:27;;;;;;;5.43;3.08;;;;;;;;;;1665629;29;22034;-60
2022/03/12 00:48:19;;;;;;;5.45;3.03;;;;;;;;;;1665194;29;21604;-59
2022/03/12 00:49:11;;;;;;;2.67;2.47;;;;;;;;;;1664830;29;22147;-60
2022/03/12 00:50:03;;;;;;;3.10;2.80;;;;;;;;;;1665199;29;21697;-60
2022/03/12 00:50:55;;;;;;;3.25;2.95;;;;;;;;;;1665323;29;21546;-59
2022/03/12 00:51:48;;;;;;;4.10;2.83;;;;;;;;;;1664409;29;21565;-59
2022/03/12 00:52:40;;;;;;;3.42;2.63;;;;;;;;;;1665356;29;21532;-59
2022/03/12 00:53:31;;;;;;;3.22;2.90;;;;;;;;;;1665315;29;21687;-59
2022/03/12 00:54:24;;;;;;;3.10;2.90;;;;;;;;;;1664604;29;21608;-60
2022/03/12 00:55:15;;;;;;;2.70;2.50;;;;;;;;;;1665274;29;21517;-60
2022/03/12 00:56:08;;;;;;;3.17;2.60;;;;;;;;;;1664928;29;21558;-59
2022/03/12 00:56:59;;;;;;;4.90;3.38;;;;;;;;;;1664589;29;21526;-59
2022/03/12 00:57:52;;;;;;;3.25;2.67;;;;;;;;;;1665395;29;21679;-59
2022/03/12 00:58:45;;;;;;;8.35;2.72;;;;;;;;;;1665294;29;21549;-59
2022/03/12 00:59:37;;;;;;;3.42;2.83;;;;;;;;;;1664661;29;21557;-59
2022/03/12 01:00:31;;;;;;;3.40;3.10;;;;;;;;;;1664978;29;21647;-59
2022/03/12 01:01:24;;;;;;;4.35;2.95;;;;;;;;;;1665143;29;21523;-59
2022/03/12 01:02:16;;;;;;;3.10;2.80;;;;;;;;;;1664588;29;21643;-59
2022/03/12 01:03:08;;;;;;;2.88;2.45;;;;;;;;;;1665262;29;22255;-60
2022/03/12 01:03:59;;;;;;;4.47;2.90;;;;;;;;;;1665261;29;21674;-60
2022/03/12 01:04:52;;;;;;;4.47;3.50;;;;;;;;;;1665368;29;21536;-60
2022/03/12 01:05:54;;;;;;;6.00;2.53;;;;;;;;;;1663764;29;21676;-60
2022/03/12 01:06:46;;;;;;;8.95;3.13;;;;;;;;;;1665277;29;21555;-59
2022/03/12 01:07:38;;;;;;;7.60;3.08;;;;;;;;;;1665240;29;21759;-59
2022/03/12 01:08:31;;;;;;;3.75;2.63;;;;;;;;;;1664719;29;21547;-59
2022/03/12 01:09:22;;;;;;;5.43;2.80;;;;;;;;;;1665404;29;21514;-59
2022/03/12 01:10:15;;;;;;;3.03;2.80;;;;;;;;;;1665112;29;21552;-59
2022/03/12 01:11:09;;;;;;;3.22;2.92;;;;;;;;;;1664299;29;21593;-59
2022/03/12 01:12:01;;;;;;;3.20;2.90;;;;;;;;;;1665267;29;21900;-59
2022/03/12 01:12:52;;;;;;;2.97;2.78;;;;;;;;;;1659333;29;21592;-59
2022/03/12 01:13:44;;;;;;;5.57;2.83;;;;;;;;;;1658655;29;21693;-59
2022/03/12 01:14:38;;;;;;;3.38;3.17;;;;;;;;;;1665052;29;22129;-59
2022/03/12 01:15:32;;;;;;;3.55;3.25;;;;;;;;;;1664477;29;21841;-59
2022/03/12 01:16:23;;;;;;;3.03;2.83;;;;;;;;;;1664244;29;21554;-59
2022/03/12 01:17:15;;;;;;;3.45;3.17;;;;;;;;;;1665186;29;21628;-59
2022/03/12 01:18:12;;;;;;;5.20;3.13;;;;;;;;;;1665117;29;21662;-59
2022/03/12 01:19:04;;;;;;;3.50;2.95;;;;;;;;;;1664518;29;21548;-59
2022/03/12 01:19:55;;;;;;;4.47;3.28;;;;;;;;;;1665318;29;21507;-59
2022/03/12 01:20:48;;;;;;;5.43;3.60;;;;;;;;;;1665157;29;21553;-59
2022/03/12 01:21:39;;;;;;;3.65;3.22;;;;;;;;;;1665458;29;21572;-60
2022/03/12 01:22:33;;;;;;;3.55;3.25;;;;;;;;;;1664409;29;21624;-59
2022/03/12 01:23:26;;;;;;;3.92;3.60;;;;;;;;;;1665059;29;21687;-60
2022/03/12 01:24:18;;;;;;;3.45;3.15;;;;;;;;;;1665163;29;22104;-59
2022/03/12 01:25:10;;;;;;;9.20;3.20;;;;;;;;;;1664328;29;21786;-59
2022/03/12 01:26:02;;;;;;;4.13;3.58;;;;;;;;;;1664212;29;21581;-59
2022/03/12 01:26:53;;;;;;;5.95;3.28;;;;;;;;;;1665322;29;21577;-59
2022/03/12 01:27:45;;;;;;;5.07;3.28;;;;;;;;;;1664395;29;22215;-60
2022/03/12 01:28:37;;;;;;;4.20;3.90;;;;;;;;;;1665124;29;21617;-59
2022/03/12 01:29:29;;;;;;;5.78;3.45;;;;;;;;;;1665272;29;22123;-59
2022/03/12 01:30:32;;;;;;;3.60;3.30;;;;;;;;;;1664196;29;21632;-59
2022/03/12 01:31:24;;;;;;;4.72;3.60;;;;;;;;;;1665111;29;21911;-59
2022/03/12 01:32:15;;;;;;;3.33;3.00;;;;;;;;;;1665165;29;21611;-59
2022/03/12 01:33:07;;;;;;;4.60;3.30;;;;;;;;;;1665030;29;21762;-59
2022/03/12 01:33:59;;;;;;;3.90;3.17;;;;;;;;;;1664478;29;21593;-59
2022/03/12 01:34:51;;;;;;;3.40;3.10;;;;;;;;;;1664268;29;21604;-59
2022/03/12 01:35:43;;;;;;;3.60;3.30;;;;;;;;;;1664296;29;21496;-60
2022/03/12 01:36:35;;;;;;;3.67;3.35;;;;;;;;;;1664173;29;21834;-59
2022/03/12 01:37:27;;;;;;;3.72;3.33;;;;;;;;;;1665195;29;21642;-60
2022/03/12 01:38:29;;;;;;;4.80;3.15;;;;;;;;;;1665301;29;21551;-59
2022/03/12 01:39:21;;;;;;;8.50;3.40;;;;;;;;;;1664389;29;21615;-59
2022/03/12 01:40:14;;;;;;;3.47;2.65;;;;;;;;;;1665009;29;21745;-61
2022/03/12 01:41:06;;;;;;;3.58;3.25;;;;;;;;;;1664482;29;21708;-60
2022/03/12 01:41:57;;;;;;;3.50;3.17;;;;;;;;;;1664457;29;21617;-59
2022/03/12 01:42:50;;;;;;;4.10;2.90;;;;;;;;;;1665139;29;21532;-59
2022/03/12 01:43:43;;;;;;;5.32;3.25;;;;;;;;;;1665128;29;21637;-60
2022/03/12 01:44:35;;;;;;;3.90;3.60;;;;;;;;;;1664407;29;21539;-59
2022/03/12 01:45:28;;;;;;;3.80;3.33;;;;;;;;;;1664270;29;21564;-59
2022/03/12 01:46:32;;;;;;;3.40;3.10;;;;;;;;;;1664825;29;21608;-60
2022/03/12 01:47:23;;;;;;;4.35;3.40;;;;;;;;;;1664297;29;21470;-59
2022/03/12 01:48:16;;;;;;;3.58;3.00;;;;;;;;;;1665157;29;21654;-60
2022/03/12 01:49:11;;;;;;;3.22;2.90;;;;;;;;;;1664919;29;21528;-60
2022/03/12 01:50:04;;;;;;;3.70;3.22;;;;;;;;;;1664199;29;21617;-60
2022/03/12 01:50:56;;;;;;;5.40;2.72;;;;;;;;;;1665004;29;21519;-60
2022/03/12 01:51:51;;;;;;;3.00;2.58;;;;;;;;;;1665134;29;21514;-60
2022/03/12 01:52:42;;;;;;;3.08;2.85;;;;;;;;;;1664626;29;21681;-59
2022/03/12 01:53:34;;;;;;;6.47;3.15;;;;;;;;;;1665074;29;21514;-60
2022/03/12 01:54:28;;;;;;;3.90;3.60;;;;;;;;;;1664933;29;22021;-59
2022/03/12 01:55:21;;;;;;;7.60;3.58;;;;;;;;;;1663898;29;21545;-60
2022/03/12 01:56:13;;;;;;;6.88;3.38;;;;;;;;;;1656249;29;21528;-60
2022/03/12 01:57:05;;;;;;;3.10;2.80;;;;;;;;;;1658207;29;21490;-59
2022/03/12 01:57:58;;;;;;;3.70;3.40;;;;;;;;;;1661994;29;21560;-59
2022/03/12 01:58:51;;;;;;;3.70;3.40;;;;;;;;;;1664836;29;21485;-60
2022/03/12 01:59:44;;;;;;;3.17;2.88;;;;;;;;;;1664802;29;21848;-60
2022/03/12 02:00:43;;;;;;;3.60;3.30;;;;;;;;;;1664245;29;21661;-60
2022/03/12 02:01:36;;;;;;;5.15;3.00;;;;;;;;;;1664907;29;21611;-60
2022/03/12 02:02:28;;;;;;;3.28;2.97;;;;;;;;;;1665039;29;21561;-60
2022/03/12 02:03:23;;;;;;;3.22;2.92;;;;;;;;;;1664340;29;21563;-60
2022/03/12 02:04:17;;;;;;;3.58;2.95;;;;;;;;;;1664947;29;21625;-59
2022/03/12 02:05:10;;;;;;;3.30;3.10;;;;;;;;;;1657813;29;21538;-59
2022/03/12 02:06:02;;;;;;;3.90;3.15;;;;;;;;;;1656866;29;21644;-60
2022/03/12 02:06:53;;;;;;;3.17;2.83;;;;;;;;;;1662597;29;22137;-60
2022/03/12 02:07:47;;;;;;;2.92;2.70;;;;;;;;;;1664908;29;21667;-60
2022/03/12 02:08:38;;;;;;;2.90;2.70;;;;;;;;;;1664241;29;21553;-59
2022/03/12 02:09:30;;;;;;;3.75;3.13;;;;;;;;;;1664863;29;21558;-60
2022/03/12 02:10:22;;;;;;;3.75;3.00;;;;;;;;;;1664842;29;21572;-59
2022/03/12 02:11:14;;;;;;;3.45;3.15;;;;;;;;;;1664346;29;21558;-59
2022/03/12 02:12:07;;;;;;;3.40;3.10;;;;;;;;;;1664806;29;21548;-60
2022/03/12 02:13:00;;;;;;;3.17;2.95;;;;;;;;;;1664826;29;21942;-60
2022/03/12 02:13:57;;;;;;;3.35;3.05;;;;;;;;;;1664390;29;21509;-60
2022/03/12 02:14:49;;;;;;;4.15;3.13;;;;;;;;;;1664821;29;21589;-60
2022/03/12 02:15:41;;;;;;;2.85;2.65;;;;;;;;;;1664356;29;21620;-59
2022/03/12 02:16:34;;;;;;;5.25;2.90;;;;;;;;;;1664266;29;21788;-60
2022/03/12 02:17:26;;;;;;;2.78;2.58;;;;;;;;;;1664929;29;21528;-59
2022/03/12 02:18:19;;;;;;;3.30;3.00;;;;;;;;;;1664998;29;21650;-59
2022/03/12 02:19:10;;;;;;;4.32;2.72;;;;;;;;;;1664306;29;21929;-59
2022/03/12 02:20:02;;;;;;;3.08;2.88;;;;;;;;;;1665187;29;21512;-60
2022/03/12 02:20:54;;;;;;;4.45;3.05;;;;;;;;;;1664816;29;21568;-60
2022/03/12 02:21:52;;;;;;;3.20;2.80;;;;;;;;;;1664217;29;21550;-59
2022/03/12 02:22:45;;;;;;;5.00;3.13;;;;;;;;;;1664874;29;21515;-59
2022/03/12 02:23:48;;;;;;;3.30;3.00;;;;;;;;;;1664887;29;21571;-60
2022/03/12 02:24:40;;;;;;;3.97;3.10;;;;;;;;;;1664264;29;21586;-60
2022/03/12 02:25:34;;;;;;;3.45;2.88;;;;;;;;;;1663900;29;21516;-60
2022/03/12 02:26:25;;;;;;;13.45;2.78;;;;;;;;;;1663489;29;21952;-59
2022/03/12 02:27:18;;;;;;;4.00;2.83;;;;;;;;;;1664208;29;21586;-59
2022/03/12 02:28:16;;;;;;;5.90;3.00;;;;;;;;;;1663830;29;22020;-60
2022/03/12 02:29:09;;;;;;;7.50;3.50;;;;;;;;;;1665028;29;21615;-59
2022/03/12 02:30:02;;;;;;;10.43;2.80;;;;;;;;;;1664090;29;21550;-60
2022/03/12 02:30:55;;;;;;;3.00;2.80;;;;;;;;;;1663330;29;21576;-60
2022/03/12 02:31:49;;;;;;;6.70;3.25;;;;;;;;;;1663514;29;21557;-59
2022/03/12 02:32:45;;;;;;;3.40;3.10;;;;;;;;;;1663866;29;21517;-59
2022/03/12 02:33:36;;;;;;;6.32;2.83;;;;;;;;;;1662098;29;21685;-60
2022/03/12 02:34:38;;;;;;;3.47;2.60;;;;;;;;;;1664845;29;21774;-60
2022/03/12 02:35:35;;;;;;;7.65;3.10;;;;;;;;;;1663403;29;21522;-60
2022/03/12 02:36:28;;;;;;;6.43;2.75;;;;;;;;;;1663473;29;21596;-59
2022/03/12 02:37:28;;;;;;;5.55;3.03;;;;;;;;;;1664887;29;21606;-60
2022/03/12 02:38:21;;;;;;;4.07;3.08;;;;;;;;;;1662977;29;21650;-60
2022/03/12 02:39:14;;;;;;;15.18;3.38;;;;;;;;;;1664785;29;21509;-60
2022/03/12 02:40:10;;;;;;;10.50;3.30;;;;;;;;;;1664726;29;21542;-60
2022/03/12 02:41:10;;;;;;;8.32;3.20;;;;;;;;;;1663889;29;21529;-60
2022/03/12 02:42:02;;;;;;;;;;;;;;;;;;1663641;29;21567;-60
2022/03/12 02:42:54;;;;;;;6.75;2.70;;;;;;;;;;1664789;29;21833;-60
2022/03/12 02:43:46;;;;;;;9.00;3.13;;;;;;;;;;1664069;29;21544;-60
2022/03/12 02:44:38;;;;;;;12.20;3.38;;;;;;;;;;1664900;29;22197;-59
2022/03/12 02:45:30;;;;;;;20.08;3.40;;;;;;;;;;1663865;29;21507;-60
2022/03/12 02:46:22;;;;;;;13.00;3.40;;;;;;;;;;1663159;29;21591;-60
2022/03/12 02:47:17;;;;;;;9.27;3.30;;;;;;;;;;1664890;29;21656;-60
2022/03/12 02:48:09;;;;;;;12.98;3.05;;;;;;;;;;1665000;29;21581;-60
2022/03/12 02:49:01;;;;;;;14.02;3.22;;;;;;;;;;1663959;29;21667;-60
2022/03/12 02:49:56;;;;;;;15.68;3.58;;;;;;;;;;1664939;29;21593;-60
2022/03/12 02:50:48;;;;;;;9.35;3.38;;;;;;;;;;1664596;29;21678;-60
2022/03/12 02:51:39;;;;;;;18.00;3.83;;;;;;;;;;1664022;29;22007;-59
2022/03/12 02:52:33;;;;;;;10.73;3.60;;;;;;;;;;1664026;29;21556;-60
2022/03/12 02:53:24;;;;;;;11.38;3.05;;;;;;;;;;1657789;29;22046;-59
2022/03/12 02:54:17;;;;;;;5.80;2.88;;;;;;;;;;1657219;29;21600;-60
2022/03/12 02:55:13;;;;;;;7.40;3.13;;;;;;;;;;1659477;29;21593;-59
2022/03/12 02:56:05;;;;;;;7.28;3.30;;;;;;;;;;1663786;29;21548;-59
2022/03/12 02:56:56;;;;;;;9.10;3.60;;;;;;;;;;1664078;29;21567;-59
2022/03/12 02:57:49;;;;;;;5.68;2.80;;;;;;;;;;1664781;29;21615;-60
2022/03/12 02:58:41;;;;;;;12.40;3.47;;;;;;;;;;1664856;29;22074;-60
2022/03/12 02:59:33;;;;;;;8.23;2.80;;;;;;;;;;1664210;29;21699;-60
2022/03/12 03:00:25;;;;;;;6.30;3.25;;;;;;;;;;1664526;29;21547;-60
2022/03/12 03:01:17;;;;;;;8.02;3.40;;;;;;;;;;1664628;29;22052;-60
2022/03/12 03:02:09;;;;;;;5.90;3.40;;;;;;;;;;1664101;29;21526;-60
2022/03/12 03:03:02;;;;;;;10.32;3.15;;;;;;;;;;1664581;29;21654;-59
2022/03/12 03:03:54;;;;;;;4.15;2.65;;;;;;;;;;1664531;29;21657;-60
2022/03/12 03:04:47;;;;;;;4.72;3.03;;;;;;;;;;1664693;29;21504;-59
2022/03/12 03:05:45;;;;;;;7.78;3.20;;;;;;;;;;1663331;29;22015;-59
2022/03/12 03:06:38;;;;;;;15.48;3.35;;;;;;;;;;1664737;29;21548;-60
2022/03/12 03:07:29;;;;;;;9.77;3.17;;;;;;;;;;1664671;29;21609;-60
2022/03/12 03:08:23;;;;;;;3.30;2.85;;;;;;;;;;1664006;29;21519;-59
2022/03/12 03:09:16;;;;;;;6.30;3.10;;;;;;;;;;1664894;29;21561;-60
2022/03/12 03:10:10;;;;;;;8.82;2.88;;;;;;;;;;1664603;29;21618;-60
2022/03/12 03:11:09;;;;;;;5.30;3.10;;;;;;;;;;1663991;29;21578;-60
2022/03/12 03:12:06;;;;;;;9.27;3.28;;;;;;;;;;1664824;29;21982;-59
2022/03/12 03:12:58;;;;;;;8.35;2.97;;;;;;;;;;1664894;29;22112;-59
2022/03/12 03:13:50;;;;;;;5.40;2.75;;;;;;;;;;1663833;29;22051;-60
2022/03/12 03:14:42;;;;;;;18.92;3.50;;;;;;;;;;1664464;29;21546;-60
2022/03/12 03:15:39;;;;;;;12.93;3.47;;;;;;;;;;1663771;29;21647;-60
2022/03/12 03:16:31;;;;;;;17.30;2.90;;;;;;;;;;1664190;29;21660;-60
2022/03/12 03:17:24;;;;;;;17.30;3.28;;;;;;;;;;1664772;29;21961;-59
2022/03/12 03:18:17;;;;;;;3.30;3.00;;;;;;;;;;1664678;29;21505;-60
2022/03/12 03:19:10;;;;;;;11.80;3.13;;;;;;;;;;1663987;29;21509;-60
2022/03/12 03:20:01;;;;;;;11.70;3.30;;;;;;;;;;1664701;29;21854;-60
2022/03/12 03:20:56;;;;;;;2.95;2.67;;;;;;;;;;1664656;29;21692;-60
2022/03/12 03:21:47;;;;;;;5.25;2.88;;;;;;;;;;1663875;29;21525;-60
2022/03/12 03:22:39;;;;;;;6.97;2.88;;;;;;;;;;1664671;29;21550;-60
2022/03/12 03:23:31;;;;;;;4.07;2.50;;;;;;;;;;1664675;29;21580;-60
2022/03/12 03:24:26;;;;;;;4.35;2.83;;;;;;;;;;1663857;29;21550;-60
2022/03/12 03:25:17;;;;;;;3.10;2.80;;;;;;;;;;1664082;29;21592;-60
2022/03/12 03:26:09;;;;;;;4.72;2.90;;;;;;;;;;1664241;29;21674;-60
2022/03/12 03:27:02;;;;;;;3.95;3.22;;;;;;;;;;1663952;29;21626;-60
2022/03/12 03:27:54;;;;;;;8.30;3.35;;;;;;;;;;1664627;29;21585;-60
2022/03/12 03:28:45;;;;;;;9.93;3.00;;;;;;;;;;1664646;29;22034;-60
2022/03/12 03:29:37;;;;;;;4.38;3.15;;;;;;;;;;1663847;29;21611;-59
2022/03/12 03:30:34;;;;;;;7.70;2.92;;;;;;;;;;1664459;29;21942;-60
2022/03/12 03:31:26;;;;;;;3.58;2.30;;;;;;;;;;1664610;29;21873;-60
2022/03/12 03:32:18;;;;;;;5.25;2.38;;;;;;;;;;1663832;29;21619;-60
2022/03/12 03:33:13;;;;;;;5.15;2.38;;;;;;;;;;1661791;29;21566;-60
2022/03/12 03:34:04;;;;;;;5.80;2.65;;;;;;;;;;1664559;29;21540;-60
2022/03/12 03:34:56;;;;;;;6.47;2.72;;;;;;;;;;1664735;29;22040;-60
2022/03/12 03:35:48;;;;;;;3.45;2.47;;;;;;;;;;1663048;29;21707;-60
2022/03/12 03:36:40;;;;;;;5.57;2.85;;;;;;;;;;1664543;29;21669;-60
2022/03/12 03:37:31;;;;;;;2.80;2.60;;;;;;;;;;1664521;29;21626;-59
2022/03/12 03:38:24;;;;;;;2.72;2.53;;;;;;;;;;1663823;29;21618;-60
2022/03/12 03:39:15;;;;;;;3.17;2.80;;;;;;;;;;1664561;29;21562;-59
2022/03/12 03:40:12;;;;;;;3.15;2.55;;;;;;;;;;1664573;29;21709;-60
2022/03/12 03:41:03;;;;;;;3.45;2.70;;;;;;;;;;1663459;29;22246;-60
2022/03/12 03:41:56;;;;;;;5.18;2.45;;;;;;;;;;1664714;29;22146;-60
2022/03/12 03:42:48;;;;;;;7.28;2.97;;;;;;;;;;1664482;29;22220;-60
2022/03/12 03:43:40;;;;;;;3.20;2.90;;;;;;;;;;1663699;29;21546;-60
2022/03/12 03:44:31;;;;;;;2.67;2.17;;;;;;;;;;1664093;29;21696;-60
2022/03/12 03:45:27;;;;;;;5.15;2.70;;;;;;;;;;1663769;29;21539;-60
2022/03/12 03:46:21;;;;;;;2.75;2.55;;;;;;;;;;1663466;29;21532;-60
2022/03/12 03:47:13;;;;;;;2.83;2.40;;;;;;;;;;1664772;29;21524;-60
2022/03/12 03:48:10;;;;;;;3.17;2.50;;;;;;;;;;1664461;29;21487;-59
2022/03/12 03:49:04;;;;;;;2.55;2.35;;;;;;;;;;1663697;29;22020;-60
2022/03/12 03:49:56;;;;;;;2.78;2.58;;;;;;;;;;1664591;29;21619;-59
2022/03/12 03:50:50;;;;;;;5.18;2.58;;;;;;;;;;1664557;29;21733;-60
2022/03/12 03:51:42;;;;;;;10.05;2.78;;;;;;;;;;1663822;29;22028;-60
2022/03/12 03:52:34;;;;;;;2.35;2.10;;;;;;;;;;1664649;29;21527;-60
2022/03/12 03:53:26;;;;;;;2.38;2.17;;;;;;;;;;1664391;29;21573;-60
2022/03/12 03:54:18;;;;;;;3.95;2.47;;;;;;;;;;1663888;29;21678;-60
2022/03/12 03:55:11;;;;;;;5.88;2.55;;;;;;;;;;1661552;29;21615;-60
2022/03/12 03:56:04;;;;;;;4.03;2.13;;;;;;;;;;1663661;29;21625;-60
2022/03/12 03:56:56;;;;;;;4.03;2.60;;;;;;;;;;1663746;29;21600;-60
2022/03/12 03:57:48;;;;;;;3.25;2.85;;;;;;;;;;1664462;29;21541;-60
2022/03/12 03:58:39;;;;;;;2.95;2.67;;;;;;;;;;1664445;29;22206;-60
2022/03/12 03:59:31;;;;;;;3.17;2.60;;;;;;;;;;1663961;29;21762;-60
2022/03/12 04:00:23;;;;;;;2.30;2.17;;;;;;;;;;1664304;29;21732;-60
2022/03/12 04:01:18;;;;;;;2.67;2.47;;;;;;;;;;1664524;29;21495;-60
2022/03/12 04:02:09;;;;;;;3.25;2.47;;;;;;;;;;1664029;29;21562;-60
2022/03/12 04:03:02;;;;;;;3.60;2.20;;;;;;;;;;1663783;29;21564;-60
2022/03/12 04:03:54;;;;;;;6.95;2.63;;;;;;;;;;1664716;29;21564;-60
2022/03/12 04:04:48;;;;;;;2.20;2.10;;;;;;;;;;1665599;29;21555;-60
2022/03/12 04:05:40;;;;;;;3.00;2.60;;;;;;;;;;1664174;29;21748;-60
2022/03/12 04:06:32;;;;;;;3.55;2.40;;;;;;;;;;1665420;29;21541;-60
2022/03/12 04:07:23;;;;;;;5.03;2.60;;;;;;;;;;1665674;29;22203;-60
2022/03/12 04:08:15;;;;;;;2.63;2.42;;;;;;;;;;1664868;29;21567;-60
2022/03/12 04:09:07;;;;;;;2.95;2.40;;;;;;;;;;1665562;29;21507;-60
2022/03/12 04:10:00;;;;;;;2.50;2.30;;;;;;;;;;1665585;29;21984;-60
2022/03/12 04:10:53;;;;;;;3.88;2.60;;;;;;;;;;1664775;29;21571;-60
2022/03/12 04:11:45;;;;;;;3.20;2.45;;;;;;;;;;1665545;29;21552;-60
2022/03/12 04:12:37;;;;;;;2.90;2.53;;;;;;;;;;1665658;29;21618;-60
2022/03/12 04:13:29;;;;;;;2.88;2.28;;;;;;;;;;1664967;29;21550;-59
2022/03/12 04:14:20;;;;;;;3.40;2.60;;;;;;;;;;1664627;29;21589;-60
2022/03/12 04:15:13;;;;;;;10.93;2.63;;;;;;;;;;1665481;29;21567;-59
2022/03/12 04:16:06;;;;;;;5.80;2.50;;;;;;;;;;1664029;29;21528;-60
2022/03/12 04:16:59;;;;;;;6.05;2.78;;;;;;;;;;1665655;29;21688;-60
2022/03/12 04:17:51;;;;;;;2.95;2.70;;;;;;;;;;1665491;29;21730;-60
2022/03/12 04:18:45;;;;;;;8.45;2.72;;;;;;;;;;1664942;29;21655;-60
2022/03/12 04:19:37;;;;;;;4.38;2.30;;;;;;;;;;1665473;29;21519;-60
2022/03/12 04:20:29;;;;;;;3.17;2.72;;;;;;;;;;1665471;29;22041;-60
2022/03/12 04:21:20;;;;;;;4.57;2.47;;;;;;;;;;1664804;29;21696;-60
2022/03/12 04:22:13;;;;;;;16.98;2.83;;;;;;;;;;1665527;29;21638;-60
2022/03/12 04:23:04;;;;;;;15.60;2.65;;;;;;;;;;1665570;29;21554;-60
2022/03/12 04:23:56;;;;;;;12.88;2.78;;;;;;;;;;1664644;29;21631;-60
2022/03/12 04:24:48;;;;;;;10.52;3.15;;;;;;;;;;1665642;29;21630;-60
2022/03/12 04:25:41;;;;;;;8.48;2.65;;;;;;;;;;1664829;29;21750;-60
2022/03/12 04:26:35;;;;;;;5.28;2.53;;;;;;;;;;1664908;29;21600;-59
2022/03/12 04:27:27;;;;;;;3.53;2.63;;;;;;;;;;1665147;29;21695;-60
2022/03/12 04:28:19;;;;;;;7.03;3.00;;;;;;;;;;1665760;29;22160;-60
2022/03/12 04:29:11;;;;;;;9.65;2.80;;;;;;;;;;1664863;29;21626;-60
2022/03/12 04:30:04;;;;;;;6.28;3.00;;;;;;;;;;1665005;29;21615;-60
2022/03/12 04:30:56;;;;;;;7.00;3.20;;;;;;;;;;1665621;29;21523;-60
2022/03/12 04:31:47;;;;;;;13.00;3.03;;;;;;;;;;1664889;29;22075;-60
2022/03/12 04:32:40;;;;;;;16.10;2.90;;;;;;;;;;1665388;29;21695;-60
2022/03/12 04:33:32;;;;;;;14.73;2.60;;;;;;;;;;1665691;29;22168;-60
2022/03/12 04:34:25;;;;;;;17.65;3.38;;;;;;;;;;1665507;29;21589;-60
2022/03/12 04:35:17;;;;;;;7.30;2.92;;;;;;;;;;1664442;29;21529;-60
2022/03/12 04:36:10;;;;;;;8.13;2.80;;;;;;;;;;1665174;29;21510;-60
2022/03/12 04:37:03;;;;;;;12.27;3.55;;;;;;;;;;1665510;29;21655;-60
2022/03/12 04:37:56;;;;;;;8.90;2.75;;;;;;;;;;1664950;29;21878;-60
2022/03/12 04:38:49;;;;;;;17.35;2.53;;;;;;;;;;1665145;29;21550;-60
2022/03/12 04:39:41;;;;;;;4.10;2.70;;;;;;;;;;1665690;29;22109;-60
2022/03/12 04:40:33;;;;;;;10.40;2.80;;;;;;;;;;1664853;29;21552;-60
2022/03/12 04:41:34;;;;;;;4.43;3.00;;;;;;;;;;1656888;29;21934;-60
2022/03/12 04:42:27;;;;;;;6.97;2.90;;;;;;;;;;1652560;29;21605;-60
2022/03/12 04:43:19;;;;;;;4.78;2.47;;;;;;;;;;1656581;29;21527;-60
2022/03/12 04:44:10;;;;;;;9.45;2.60;;;;;;;;;;1658531;29;22142;-60
2022/03/12 04:45:03;;;;;;;10.68;2.72;;;;;;;;;;1663074;29;21541;-60
2022/03/12 04:45:54;;;;;;;6.13;2.65;;;;;;;;;;1663810;29;21678;-60
2022/03/12 04:46:46;;;;;;;5.93;2.38;;;;;;;;;;1665141;29;21690;-60
2022/03/12 04:47:41;;;;;;;9.05;2.67;;;;;;;;;;1665454;29;22110;-59
2022/03/12 04:48:33;;;;;;;9.40;2.90;;;;;;;;;;1665188;29;21503;-60
2022/03/12 04:49:25;;;;;;;4.80;2.60;;;;;;;;;;1664915;29;21601;-60
2022/03/12 04:50:20;;;;;;;5.93;2.60;;;;;;;;;;1665293;29;21634;-60
2022/03/12 04:51:11;;;;;;;15.98;3.45;;;;;;;;;;1664847;29;21571;-60
2022/03/12 04:52:04;;;;;;;7.13;2.83;;;;;;;;;;1665152;29;21570;-60
2022/03/12 04:52:58;;;;;;;6.43;2.65;;;;;;;;;;1665297;29;21590;-59
2022/03/12 04:53:50;;;;;;;3.97;2.70;;;;;;;;;;1665226;29;22013;-60
2022/03/12 04:54:42;;;;;;;5.38;2.92;;;;;;;;;;1664775;29;21626;-60
2022/03/12 04:55:36;;;;;;;3.10;2.70;;;;;;;;;;1664388;29;21926;-60
2022/03/12 04:56:28;;;;;;;9.85;2.63;;;;;;;;;;1665372;29;21587;-60
2022/03/12 04:57:20;;;;;;;4.70;2.70;;;;;;;;;;1664520;29;21503;-60
2022/03/12 04:58:13;;;;;;;2.97;2.10;;;;;;;;;;1665264;29;21926;-60
2022/03/12 04:59:05;;;;;;;6.22;2.90;;;;;;;;;;1658454;29;22196;-60
2022/03/12 04:59:56;;;;;;;4.70;2.58;;;;;;;;;;1657651;29;21559;-60
2022/03/12 05:00:49;;;;;;;8.10;2.70;;;;;;;;;;1662749;29;21982;-59
2022/03/12 05:01:40;;;;;;;8.35;2.80;;;;;;;;;;1665374;29;21572;-60
2022/03/12 05:02:33;;;;;;;8.52;2.88;;;;;;;;;;1664556;29;21574;-60
2022/03/12 05:03:25;;;;;;;10.68;2.97;;;;;;;;;;1665374;29;21505;-59
2022/03/12 05:04:17;;;;;;;7.75;2.75;;;;;;;;;;1665352;29;21503;-60
2022/03/12 05:05:11;;;;;;;10.57;3.03;;;;;;;;;;1664609;29;21996;-60
2022/03/12 05:06:04;;;;;;;10.68;2.80;;;;;;;;;;1664422;29;21513;-60
2022/03/12 05:06:55;;;;;;;22.33;3.00;;;;;;;;;;1665356;29;21614;-61
2022/03/12 05:07:48;;;;;;;6.53;2.58;;;;;;;;;;1665117;29;21637;-60
2022/03/12 05:08:40;;;;;;;12.57;3.03;;;;;;;;;;1664899;29;21734;-60
2022/03/12 05:09:32;;;;;;;9.48;3.03;;;;;;;;;;1665446;29;22147;-60
2022/03/12 05:10:27;;;;;;;5.15;2.80;;;;;;;;;;1664686;29;21542;-60
2022/03/12 05:11:19;;;;;;;4.97;2.60;;;;;;;;;;1665088;29;21642;-60
2022/03/12 05:12:11;;;;;;;2.85;2.65;;;;;;;;;;1658638;29;21566;-60
2022/03/12 05:13:04;;;;;;;8.90;2.63;;;;;;;;;;1657742;29;21535;-60
2022/03/12 05:13:57;;;;;;;3.78;2.78;;;;;;;;;;1662795;29;21698;-60
2022/03/12 05:14:51;;;;;;;9.32;2.88;;;;;;;;;;1665255;29;21574;-60
2022/03/12 05:15:42;;;;;;;7.07;3.05;;;;;;;;;;1663090;29;21911;-60
2022/03/12 05:16:35;;;;;;;8.48;2.88;;;;;;;;;;1665184;29;21656;-60